createdAt,value
2023-01-21T00:01:48.208Z,90.29
2023-01-21T00:04:23.281Z,90.97
2023-01-21T00:06:59.178Z,91.42
2023-01-21T00:09:35.229Z,91.45
2023-01-21T00:12:12.310Z,90.72
2023-01-21T00:14:42.826Z,91.55
2023-01-21T00:17:13.338Z,90.88
2023-01-21T00:19:57.449Z,90.53
2023-01-21T00:22:28.391Z,91.44
2023-01-21T00:24:58.073Z,90.43
2023-01-21T00:27:29.189Z,90.16
2023-01-21T00:29:57.342Z,91.39
2023-01-21T00:32:29.107Z,90.17
2023-01-21T00:35:03.864Z,90.08
2023-01-21T00:37:34.947Z,90.71
2023-01-21T00:40:05.732Z,90.82
2023-01-21T00:42:38.624Z,90.15
2023-01-21T00:45:08.453Z,90.84
2023-01-21T00:47:39.494Z,90.42
2023-01-21T00:50:12.313Z,90.91
2023-01-21T00:52:43.369Z,89.78
2023-01-21T00:55:11.608Z,89.45
2023-01-21T00:57:39.502Z,89.93
2023-01-21T01:00:15.186Z,88.75
2023-01-21T01:02:44.983Z,89.05
2023-01-21T01:05:15.124Z,88.64
2023-01-21T01:07:47.265Z,88.53
2023-01-21T01:10:15.627Z,88.50
2023-01-21T01:12:44.045Z,88.81
2023-01-21T01:15:12.936Z,89.09
2023-01-21T01:17:41.410Z,88.58
2023-01-21T01:20:13.921Z,89.16
2023-01-21T01:22:44.352Z,88.55
2023-01-21T01:25:14.869Z,88.44
2023-01-21T01:27:45.847Z,88.41
2023-01-21T01:30:14.784Z,88.80
2023-01-21T01:32:44.509Z,88.75
2023-01-21T01:35:17.629Z,88.45
2023-01-21T01:37:50.217Z,88.19
2023-01-21T01:40:22.004Z,88.10
2023-01-21T01:42:52.180Z,88.82
2023-01-21T01:45:32.064Z,88.46
2023-01-21T01:48:07.984Z,88.19
2023-01-21T01:50:41.397Z,87.97
2023-01-21T01:53:25.711Z,88.39
2023-01-21T01:55:56.627Z,89.30
2023-01-21T01:58:28.075Z,89.26
2023-01-21T02:00:59.892Z,88.57
2023-01-21T02:03:46.873Z,88.96
2023-01-21T02:06:21.523Z,88.80
2023-01-21T02:08:54.304Z,88.71
2023-01-21T02:11:23.687Z,87.76
2023-01-21T02:13:54.462Z,87.82
2023-01-21T02:16:47.211Z,88.12
2023-01-21T02:20:00.927Z,86.62
2023-01-21T02:22:39.284Z,86.74
2023-01-21T02:25:50.932Z,86.35
2023-01-21T02:29:08.269Z,87.23
2023-01-21T02:32:19.757Z,85.95
2023-01-21T02:34:58.634Z,86.18
2023-01-21T02:37:40.051Z,85.52
2023-01-21T02:40:15.397Z,86.21
2023-01-21T02:42:47.950Z,86.62
2023-01-21T02:45:26.667Z,85.90
2023-01-21T02:48:06.472Z,86.68
2023-01-21T02:50:42.686Z,85.77
2023-01-21T02:53:24.804Z,86.53
2023-01-21T02:55:55.239Z,86.91
2023-01-21T02:58:32.394Z,87.75
2023-01-21T03:01:24.044Z,87.22
2023-01-21T03:04:26.071Z,87.23
2023-01-21T03:07:11.963Z,88.42
2023-01-21T03:09:41.121Z,88.58
2023-01-21T03:12:23.654Z,87.71
2023-01-21T03:15:19.218Z,88.61
2023-01-21T03:17:55.589Z,89.02
2023-01-21T03:20:31.506Z,87.54
2023-01-21T03:23:05.120Z,88.00
2023-01-21T03:25:37.986Z,87.53
2023-01-21T03:28:12.385Z,87.99
2023-01-21T03:30:45.976Z,88.33
2023-01-21T03:33:18.806Z,88.52
2023-01-21T03:35:54.698Z,87.59
2023-01-21T03:38:31.441Z,88.67
2023-01-21T03:41:05.171Z,88.68
2023-01-21T03:43:36.085Z,88.69
2023-01-21T03:46:13.412Z,88.52
2023-01-21T03:48:46.492Z,87.85
2023-01-21T03:51:23.463Z,88.65
2023-01-21T03:53:59.873Z,88.75
2023-01-21T03:56:31.688Z,88.04
2023-01-21T03:59:00.163Z,88.37
2023-01-21T04:01:29.772Z,88.46
2023-01-21T04:04:01.367Z,87.70
2023-01-21T04:06:29.901Z,88.25
2023-01-21T04:09:06.762Z,87.81
2023-01-21T04:11:35.813Z,88.43
2023-01-21T04:14:05.892Z,88.72
2023-01-21T04:16:38.268Z,88.60
2023-01-21T04:19:15.993Z,88.22
2023-01-21T04:21:44.163Z,88.39
2023-01-21T04:24:13.711Z,87.98
2023-01-21T04:26:42.732Z,88.10
2023-01-21T04:29:11.508Z,88.47
2023-01-21T04:31:41.236Z,89.20
2023-01-21T04:34:12.271Z,89.00
2023-01-21T04:36:45.635Z,88.65
2023-01-21T04:39:16.840Z,88.53
2023-01-21T04:41:45.811Z,88.66
2023-01-21T04:44:15.728Z,88.47
2023-01-21T04:46:44.261Z,88.32
2023-01-21T04:49:12.853Z,88.18
2023-01-21T04:51:43.791Z,88.42
2023-01-21T04:54:16.053Z,89.01
2023-01-21T04:56:45.555Z,88.56
2023-01-21T04:59:16.071Z,88.26
2023-01-21T05:01:44.799Z,88.51
2023-01-21T05:04:14.765Z,88.73
2023-01-21T05:06:49.030Z,88.48
2023-01-21T05:09:20.726Z,88.62
2023-01-21T05:11:51.382Z,88.65
2023-01-21T05:14:22.869Z,88.71
2023-01-21T05:16:53.749Z,88.80
2023-01-21T05:19:23.346Z,88.55
2023-01-21T05:21:51.789Z,88.68
2023-01-21T05:24:22.962Z,88.37
2023-01-21T05:26:54.017Z,88.05
2023-01-21T05:29:23.902Z,87.72
2023-01-21T05:31:53.220Z,88.28
2023-01-21T05:34:21.179Z,87.96
2023-01-21T05:36:52.606Z,88.51
2023-01-21T05:39:21.145Z,88.16
2023-01-21T05:41:53.488Z,88.11
2023-01-21T05:44:21.583Z,88.72
2023-01-21T05:46:52.152Z,88.18
2023-01-21T05:49:22.726Z,88.66
2023-01-21T05:51:53.689Z,88.97
2023-01-21T05:54:27.663Z,88.89
2023-01-21T05:57:01.179Z,89.42
2023-01-21T05:59:37.444Z,88.44
2023-01-21T06:02:09.782Z,89.09
2023-01-21T06:04:38.991Z,88.67
2023-01-21T06:07:10.716Z,89.18
2023-01-21T06:09:39.802Z,88.88
2023-01-21T06:12:18.333Z,89.28
2023-01-21T06:14:48.343Z,88.95
2023-01-21T06:17:16.435Z,88.89
2023-01-21T06:19:45.209Z,88.99
2023-01-21T06:22:17.336Z,88.78
2023-01-21T06:24:47.663Z,88.88
2023-01-21T06:27:21.235Z,89.27
2023-01-21T06:29:50.379Z,88.60
2023-01-21T06:32:22.292Z,88.58
2023-01-21T06:34:52.205Z,88.73
2023-01-21T06:37:22.205Z,89.27
2023-01-21T06:39:50.542Z,88.20
2023-01-21T06:42:21.392Z,88.41
2023-01-21T06:44:50.038Z,88.23
2023-01-21T06:47:18.228Z,88.03
2023-01-21T06:49:46.886Z,88.07
2023-01-21T06:52:15.049Z,88.13
2023-01-21T06:54:45.418Z,88.00
2023-01-21T06:57:14.007Z,87.92
2023-01-21T06:59:43.454Z,87.08
2023-01-21T07:02:16.632Z,87.08
2023-01-21T07:04:49.968Z,87.06
2023-01-21T07:07:18.382Z,87.42
2023-01-21T07:09:53.888Z,87.04
2023-01-21T07:12:22.983Z,86.82
2023-01-21T07:15:22.339Z,86.66
2023-01-21T07:17:59.481Z,87.01
2023-01-21T07:20:29.018Z,86.71
2023-01-21T07:23:03.216Z,87.57
2023-01-21T07:25:36.777Z,87.38
2023-01-21T07:28:09.333Z,86.94
2023-01-21T07:30:45.173Z,86.91
2023-01-21T07:33:15.220Z,86.28
2023-01-21T07:35:43.251Z,86.66
2023-01-21T07:38:13.115Z,86.17
2023-01-21T07:40:42.740Z,85.88
2023-01-21T07:43:12.986Z,85.74
2023-01-21T07:46:09.714Z,85.19
2023-01-21T07:48:37.525Z,85.11
2023-01-21T07:51:07.451Z,85.41
2023-01-21T07:53:38.126Z,85.79
2023-01-21T07:56:11.264Z,85.06
2023-01-21T07:58:47.988Z,85.12
2023-01-21T08:01:19.927Z,85.58
2023-01-21T08:03:50.431Z,85.09
2023-01-21T08:06:22.190Z,84.93
2023-01-21T08:08:50.379Z,84.64
2023-01-21T08:11:21.716Z,84.88
2023-01-21T08:14:04.586Z,84.99
2023-01-21T08:16:43.265Z,85.11
2023-01-21T08:19:15.232Z,84.83
2023-01-21T08:21:43.712Z,85.75
2023-01-21T08:24:12.373Z,85.54
2023-01-21T08:26:44.708Z,84.63
2023-01-21T08:29:15.462Z,83.59
2023-01-21T08:31:56.180Z,83.72
2023-01-21T08:34:28.411Z,83.63
2023-01-21T08:36:59.252Z,83.52
2023-01-21T08:39:30.404Z,83.26
2023-01-21T08:41:58.725Z,82.43
2023-01-21T08:44:26.912Z,82.89
2023-01-21T08:46:58.694Z,82.96
2023-01-21T08:49:27.959Z,82.22
2023-01-21T08:51:57.135Z,81.67
2023-01-21T08:54:24.998Z,82.11
2023-01-21T08:56:52.741Z,82.38
2023-01-21T08:59:28.779Z,81.36
2023-01-21T09:02:02.558Z,81.93
2023-01-21T09:04:33.576Z,81.33
2023-01-21T09:07:01.577Z,81.12
2023-01-21T09:09:29.898Z,81.42
2023-01-21T09:11:59.639Z,80.74
2023-01-21T09:14:29.073Z,80.82
2023-01-21T09:17:00.374Z,81.70
2023-01-21T09:19:40.033Z,81.53
2023-01-21T09:22:09.319Z,80.89
2023-01-21T09:24:42.796Z,80.02
2023-01-21T09:27:11.086Z,79.91
2023-01-21T09:29:42.134Z,79.73
2023-01-21T09:32:12.146Z,80.55
2023-01-21T09:34:42.185Z,81.15
2023-01-21T09:37:12.539Z,79.44
2023-01-21T09:39:43.504Z,79.87
2023-01-21T09:42:20.754Z,80.19
2023-01-21T09:44:54.529Z,79.99
2023-01-21T09:47:33.914Z,79.98
2023-01-21T09:50:06.431Z,78.55
2023-01-21T09:52:41.115Z,80.26
2023-01-21T09:55:19.759Z,80.17
2023-01-21T09:58:06.858Z,79.09
2023-01-21T10:00:43.499Z,80.03
2023-01-21T10:03:24.056Z,79.08
2023-01-21T10:06:35.358Z,78.52
2023-01-21T10:09:30.039Z,79.91
2023-01-21T10:12:21.358Z,79.76
2023-01-21T10:15:15.799Z,79.21
2023-01-21T10:17:52.677Z,78.97
2023-01-21T10:20:36.872Z,78.55
2023-01-21T10:23:09.644Z,78.56
2023-01-21T10:25:39.613Z,77.38
2023-01-21T10:28:15.301Z,78.15
2023-01-21T10:31:24.731Z,78.11
2023-01-21T10:33:58.089Z,78.43
2023-01-21T10:36:55.879Z,78.50
2023-01-21T10:39:37.045Z,77.11
2023-01-21T10:42:20.271Z,77.71
2023-01-21T10:44:58.724Z,78.04
2023-01-21T10:47:40.680Z,76.84
2023-01-21T10:50:35.731Z,77.49
2023-01-21T10:53:17.108Z,76.63
2023-01-21T10:56:08.385Z,77.75
2023-01-21T10:58:43.849Z,77.07
2023-01-21T11:01:24.671Z,77.22
2023-01-21T11:04:01.810Z,76.44
2023-01-21T11:06:35.295Z,77.30
2023-01-21T11:09:08.982Z,76.83
2023-01-21T11:11:41.097Z,77.08
2023-01-21T11:14:09.540Z,77.30
2023-01-21T11:16:44.214Z,77.33
2023-01-21T11:19:15.827Z,76.04
2023-01-21T11:22:01.983Z,77.30
2023-01-21T11:24:32.524Z,77.59
2023-01-21T11:27:04.901Z,77.64
2023-01-21T11:29:43.799Z,76.86
2023-01-21T11:32:20.718Z,77.32
2023-01-21T11:34:51.291Z,76.57
2023-01-21T11:37:25.218Z,76.18
2023-01-21T11:40:01.103Z,76.21
2023-01-21T11:42:33.842Z,77.23
2023-01-21T11:45:06.805Z,76.43
2023-01-21T11:47:41.029Z,76.89
2023-01-21T11:50:14.247Z,77.13
2023-01-21T11:52:49.253Z,76.15
2023-01-21T11:55:27.296Z,76.84
2023-01-21T11:58:02.300Z,75.86
2023-01-21T12:00:35.802Z,75.17
2023-01-21T12:03:09.924Z,74.63
2023-01-21T12:05:46.269Z,76.11
2023-01-21T12:08:24.318Z,74.09
2023-01-21T12:10:55.713Z,74.62
2023-01-21T12:13:33.757Z,75.19
2023-01-21T12:16:23.130Z,75.73
2023-01-21T12:19:16.555Z,74.78
2023-01-21T12:22:06.021Z,74.60
2023-01-21T12:24:51.119Z,75.02
2023-01-21T12:27:27.768Z,74.22
2023-01-21T12:30:09.375Z,75.13
2023-01-21T12:32:45.965Z,74.92
2023-01-21T12:35:20.159Z,74.65
2023-01-21T12:37:54.085Z,74.64
2023-01-21T12:40:30.403Z,74.20
2023-01-21T12:43:05.478Z,74.11
2023-01-21T12:45:42.406Z,74.76
2023-01-21T12:48:17.171Z,74.16
2023-01-21T12:50:54.872Z,73.76
2023-01-21T12:53:35.825Z,73.62
2023-01-21T12:56:17.743Z,74.63
2023-01-21T12:58:54.717Z,73.64
2023-01-21T13:01:42.815Z,74.35
2023-01-21T13:04:25.331Z,71.92
2023-01-21T13:07:04.659Z,72.73
2023-01-21T13:09:43.541Z,71.83
2023-01-21T13:12:19.224Z,72.05
2023-01-21T13:14:53.600Z,71.68
2023-01-21T13:17:37.780Z,71.89
2023-01-21T13:20:16.364Z,71.00
2023-01-21T13:23:01.215Z,71.07
2023-01-21T13:25:42.639Z,70.76
2023-01-21T13:28:23.873Z,71.50
2023-01-21T13:31:01.026Z,70.17
2023-01-21T13:33:52.140Z,69.66
2023-01-21T13:36:39.707Z,70.96
2023-01-21T13:39:23.954Z,70.86
2023-01-21T13:42:03.969Z,71.47
2023-01-21T13:45:15.698Z,71.08
2023-01-21T13:48:05.783Z,71.07
2023-01-21T13:50:59.196Z,72.02
2023-01-21T13:54:04.661Z,72.09
2023-01-21T13:56:48.965Z,72.03
2023-01-21T13:59:22.399Z,71.73
2023-01-21T14:01:56.728Z,71.65
2023-01-21T14:04:40.764Z,71.42
2023-01-21T14:07:14.765Z,71.92
2023-01-21T14:09:47.167Z,72.34
2023-01-21T14:12:24.486Z,72.13
2023-01-21T14:15:08.021Z,72.95
2023-01-21T14:18:12.431Z,73.35
2023-01-21T14:20:58.639Z,72.11
2023-01-21T14:23:49.459Z,72.27
2023-01-21T14:26:36.052Z,73.01
2023-01-21T14:29:17.210Z,72.59
2023-01-21T14:31:50.861Z,72.71
2023-01-21T14:34:27.079Z,73.08
2023-01-21T14:37:06.102Z,74.00
2023-01-21T14:39:50.783Z,72.17
2023-01-21T14:42:26.359Z,72.07
2023-01-21T14:45:04.557Z,72.62
2023-01-21T14:48:00.396Z,72.63
2023-01-21T14:50:56.781Z,73.17
2023-01-21T14:53:27.152Z,72.65
2023-01-21T14:56:18.046Z,73.18
2023-01-21T14:58:51.475Z,72.29
2023-01-21T15:01:42.755Z,72.19
2023-01-21T15:04:25.925Z,72.54
2023-01-21T15:06:58.390Z,73.26
2023-01-21T15:09:37.846Z,72.69
2023-01-21T15:12:17.221Z,73.07
2023-01-21T15:14:47.691Z,73.57
2023-01-21T15:18:05.878Z,73.68
2023-01-21T15:20:50.839Z,74.32
2023-01-21T15:23:31.036Z,73.39
2023-01-21T15:26:07.405Z,73.04
2023-01-21T15:28:45.089Z,72.45
2023-01-21T15:31:35.485Z,73.94
2023-01-21T15:34:17.869Z,72.81
2023-01-21T15:36:52.986Z,73.64
2023-01-21T15:39:29.203Z,73.33
2023-01-21T15:42:13.771Z,73.41
2023-01-21T15:45:00.130Z,73.92
2023-01-21T15:48:30.168Z,73.11
2023-01-21T15:51:14.005Z,74.12
2023-01-21T15:54:06.927Z,73.84
2023-01-21T15:57:02.626Z,73.57
2023-01-21T15:59:55.256Z,75.00
2023-01-21T16:02:28.959Z,74.17
2023-01-21T16:05:16.792Z,74.11
2023-01-21T16:08:03.217Z,75.69
2023-01-21T16:10:39.169Z,74.73
2023-01-21T16:13:16.439Z,74.59
2023-01-21T16:16:03.427Z,74.72
2023-01-21T16:18:49.380Z,74.60
2023-01-21T16:21:22.938Z,74.98
2023-01-21T16:23:54.111Z,75.17
2023-01-21T16:26:31.857Z,75.03
2023-01-21T16:29:16.423Z,75.80
2023-01-21T16:32:01.250Z,75.76
2023-01-21T16:34:44.132Z,74.35
2023-01-21T16:37:17.492Z,75.60
2023-01-21T16:39:51.207Z,74.68
2023-01-21T16:42:29.449Z,75.13
2023-01-21T16:45:00.355Z,75.39
2023-01-21T16:47:34.630Z,75.22
2023-01-21T16:50:07.704Z,74.90
2023-01-21T16:52:36.073Z,75.60
2023-01-21T16:55:08.544Z,75.75
2023-01-21T16:57:38.522Z,75.26
2023-01-21T17:00:33.584Z,75.18
2023-01-21T17:03:04.881Z,76.36
2023-01-21T17:05:37.068Z,75.60
2023-01-21T17:08:14.961Z,75.67
2023-01-21T17:10:59.873Z,75.36
2023-01-21T17:13:38.076Z,75.79
2023-01-21T17:16:08.338Z,75.51
2023-01-21T17:18:43.863Z,75.89
2023-01-21T17:21:16.545Z,75.66
2023-01-21T17:23:52.798Z,76.23
2023-01-21T17:26:25.045Z,76.41
2023-01-21T17:28:57.790Z,75.80
2023-01-21T17:31:33.438Z,76.55
2023-01-21T17:34:09.185Z,76.16
2023-01-21T17:36:43.970Z,76.01
2023-01-21T17:39:19.291Z,75.85
2023-01-21T17:41:49.534Z,76.27
2023-01-21T17:44:20.698Z,76.05
2023-01-21T17:46:54.353Z,77.51
2023-01-21T17:49:31.087Z,76.64
2023-01-21T17:52:11.189Z,77.16
2023-01-21T17:54:39.259Z,76.25
2023-01-21T17:57:09.124Z,76.08
2023-01-21T17:59:46.987Z,76.41
2023-01-21T18:02:19.691Z,74.98
2023-01-21T18:04:49.687Z,75.72
2023-01-21T18:07:25.638Z,75.74
2023-01-21T18:10:00.079Z,76.46
2023-01-21T18:12:31.229Z,76.58
2023-01-21T18:15:01.195Z,76.30
2023-01-21T18:17:30.060Z,76.86
2023-01-21T18:20:00.221Z,75.92
2023-01-21T18:22:30.546Z,75.91
2023-01-21T18:25:02.888Z,75.33
2023-01-21T18:27:31.879Z,75.99
2023-01-21T18:30:02.213Z,75.06
2023-01-21T18:32:31.404Z,74.57
2023-01-21T18:35:11.155Z,74.28
2023-01-21T18:37:40.375Z,74.23
2023-01-21T18:40:17.777Z,74.70
2023-01-21T18:42:50.840Z,74.07
2023-01-21T18:45:21.059Z,74.09
2023-01-21T18:47:51.565Z,75.29
2023-01-21T18:50:26.866Z,74.36
2023-01-21T18:52:59.675Z,74.15
2023-01-21T18:55:30.923Z,75.00
2023-01-21T18:58:06.893Z,75.00
2023-01-21T19:00:39.799Z,74.21
2023-01-21T19:03:17.972Z,74.90
2023-01-21T19:05:48.002Z,74.85
2023-01-21T19:08:22.090Z,74.48
2023-01-21T19:10:52.765Z,73.94
2023-01-21T19:13:23.735Z,73.52
2023-01-21T19:15:56.139Z,73.75
2023-01-21T19:18:34.102Z,73.00
2023-01-21T19:21:10.353Z,72.98
2023-01-21T19:23:40.278Z,73.12
2023-01-21T19:26:12.316Z,73.12
2023-01-21T19:28:41.674Z,72.49
2023-01-21T19:31:20.387Z,72.99
2023-01-21T19:33:52.336Z,73.33
2023-01-21T19:36:29.434Z,73.50
2023-01-21T19:39:02.371Z,71.99
2023-01-21T19:41:30.556Z,72.45
2023-01-21T19:43:58.819Z,72.47
2023-01-21T19:46:28.986Z,72.92
2023-01-21T19:49:00.166Z,72.90
2023-01-21T19:51:32.192Z,73.11
2023-01-21T19:54:06.130Z,72.93
2023-01-21T19:56:36.208Z,71.96
2023-01-21T19:59:06.875Z,71.80
2023-01-21T20:01:35.192Z,71.72
2023-01-21T20:04:05.461Z,71.10
2023-01-21T20:06:42.667Z,71.39
2023-01-21T20:09:17.910Z,72.06
2023-01-21T20:11:49.359Z,72.26
2023-01-21T20:14:17.138Z,72.26
2023-01-21T20:16:50.898Z,71.72
2023-01-21T20:19:26.148Z,71.41
2023-01-21T20:22:02.044Z,71.94
2023-01-21T20:24:36.127Z,71.43
2023-01-21T20:27:08.631Z,71.55
2023-01-21T20:29:49.509Z,71.75
2023-01-21T20:32:26.245Z,71.71
2023-01-21T20:34:54.353Z,71.90
2023-01-21T20:37:27.885Z,71.84
2023-01-21T20:39:57.040Z,71.89
2023-01-21T20:42:27.386Z,72.50
2023-01-21T20:45:02.300Z,73.20
2023-01-21T20:47:49.641Z,71.97
2023-01-21T20:50:27.381Z,72.14
2023-01-21T20:53:01.072Z,72.21
2023-01-21T20:55:34.821Z,72.32
2023-01-21T20:58:04.285Z,72.32
2023-01-21T21:00:37.120Z,72.50
2023-01-21T21:03:08.148Z,72.19
2023-01-21T21:05:38.952Z,72.86
2023-01-21T21:08:14.902Z,72.29
2023-01-21T21:10:44.809Z,73.72
2023-01-21T21:13:13.212Z,72.32
2023-01-21T21:15:46.654Z,72.95
2023-01-21T21:18:20.563Z,76.89
2023-01-21T21:20:48.539Z,77.37
2023-01-21T21:23:24.781Z,76.46
2023-01-21T21:25:53.354Z,78.71
2023-01-21T21:28:36.108Z,80.31
2023-01-21T21:31:05.336Z,79.78
2023-01-21T21:33:36.135Z,82.01
2023-01-21T21:36:04.236Z,81.32
2023-01-21T21:38:36.389Z,81.42
2023-01-21T21:41:28.217Z,82.57
2023-01-21T21:43:57.556Z,81.02
2023-01-21T21:46:44.053Z,81.32
2023-01-21T21:49:15.665Z,82.90
2023-01-21T21:51:45.909Z,81.90
2023-01-21T21:54:21.284Z,83.15
2023-01-21T21:56:52.166Z,82.19
2023-01-21T21:59:22.952Z,84.02
2023-01-21T22:02:00.668Z,83.68
2023-01-21T22:04:30.235Z,83.63
2023-01-21T22:07:03.628Z,82.73
2023-01-21T22:09:35.908Z,82.49
2023-01-21T22:12:04.358Z,82.67
2023-01-21T22:14:34.863Z,83.43
2023-01-21T22:17:09.164Z,82.59
2023-01-21T22:19:38.017Z,82.60
2023-01-21T22:22:09.308Z,83.40
2023-01-21T22:25:04.195Z,83.56
2023-01-21T22:27:32.513Z,83.07
2023-01-21T22:30:02.416Z,82.54
2023-01-21T22:32:32.571Z,83.48
2023-01-21T22:35:09.258Z,82.60
2023-01-21T22:37:41.380Z,82.85
2023-01-21T22:40:25.874Z,82.43
2023-01-21T22:42:55.826Z,82.58
2023-01-21T22:45:37.436Z,83.28
2023-01-21T22:48:07.557Z,83.19
2023-01-21T22:50:39.787Z,81.99
2023-01-21T22:53:08.927Z,81.33
2023-01-21T22:55:41.275Z,82.13
2023-01-21T22:58:09.081Z,81.63
2023-01-21T23:00:40.741Z,81.66
2023-01-21T23:03:11.069Z,81.80
2023-01-21T23:05:40.948Z,81.73
2023-01-21T23:08:08.926Z,81.94
2023-01-21T23:10:40.553Z,80.96
2023-01-21T23:13:12.729Z,81.49
2023-01-21T23:15:44.251Z,81.66
2023-01-21T23:18:21.379Z,83.13
2023-01-21T23:20:49.536Z,83.08
2023-01-21T23:23:20.651Z,81.67
2023-01-21T23:25:51.960Z,82.02
2023-01-21T23:28:20.009Z,82.20
2023-01-21T23:30:52.029Z,81.33
2023-01-21T23:33:34.674Z,81.71
2023-01-21T23:36:03.141Z,81.41
2023-01-21T23:38:33.234Z,81.22
2023-01-21T23:41:09.290Z,82.07
2023-01-21T23:43:38.923Z,82.02
2023-01-21T23:46:09.014Z,81.99
2023-01-21T23:48:38.272Z,82.28
2023-01-21T23:51:09.370Z,82.05
2023-01-21T23:53:39.389Z,81.87
2023-01-21T23:56:13.636Z,81.71
2023-01-21T23:58:46.071Z,81.54
